Observation data for Slaton on 03/24/2019      Previous  Date  Next       Current Mesonet Observations  Soil Data  Daily Summary Page  Observations in Plain Language
KSLS 240505Z 20012KT 11/M04 A30 RMK A01 T01111039  RH  035%=      5-min Rain = 0
KSLS 240510Z 20012KT 12/M04 A30 RMK A01 T01181041  RH  033%=      5-min Rain = 0
KSLS 240515Z 20012KT 12/M04 A30 RMK A01 T01181041  RH  033%=      5-min Rain = 0
KSLS 240520Z 20011KT 11/M04 A30 RMK A01 T01141040  RH  034%=      5-min Rain = 0
KSLS 240525Z 20011KT 11/M04 A30 RMK A01 T01091036  RH  036%=      5-min Rain = 0
KSLS 240530Z 21011KT 10/M03 A30 RMK A01 T01031034  RH  038%=      5-min Rain = 0
KSLS 240535Z 21011KT 11/M04 A30 RMK A01 T01081037  RH  036%=      5-min Rain = 0
KSLS 240540Z 21011KT 11/M04 A30 RMK A01 T01101037  RH  036%=      5-min Rain = 0
KSLS 240545Z 21011KT 11/M04 A30 RMK A01 T01121036  RH  036%=      5-min Rain = 0
KSLS 240550Z 21010KT 11/M04 A30 RMK A01 T01071035  RH  037%=      5-min Rain = 0
KSLS 240555Z 21011KT 10/M03 A30 RMK A01 T01041034  RH  038%=      5-min Rain = 0
KSLS 240600Z 21010KT 10/M03 A30 RMK A01 T01041033  RH  038%=      5-min Rain = 0
KSLS 240605Z 21011KT 10/M03 A30 RMK A01 T00991032  RH  040%=      5-min Rain = 0
KSLS 240610Z 21011KT 10/M03 A30 RMK A01 T01041034  RH  038%=      5-min Rain = 0
KSLS 240615Z 21011KT 11/M04 A30 RMK A01 T01101035  RH  036%=      5-min Rain = 0
KSLS 240620Z 21011KT 11/M04 A30 RMK A01 T01081035  RH  037%=      5-min Rain = 0
KSLS 240625Z 21011KT 11/M04 A30 RMK A01 T01061035  RH  037%=      5-min Rain = 0
KSLS 240630Z 21011KT 11/M04 A30 RMK A01 T01061035  RH  037%=      5-min Rain = 0
KSLS 240635Z 21011KT 11/M04 A30 RMK A01 T01061035  RH  037%=      5-min Rain = 0
KSLS 240640Z 21011KT 10/M04 A30 RMK A01 T01041035  RH  038%=      5-min Rain = 0
KSLS 240645Z 21011KT 11/M04 A2999 RMK A01 T01051036  RH  037%=      5-min Rain = 0
KSLS 240650Z 21011KT 11/M04 A2999 RMK A01 T01061035  RH  037%=      5-min Rain = 0
KSLS 240655Z 21011KT 10/M03 A2999 RMK A01 T01031033  RH  039%=      5-min Rain = 0
KSLS 240700Z 21010KT 10/M03 A2999 RMK A01 T01011032  RH  039%=      5-min Rain = 0
KSLS 240705Z 21009KT 10/M03 A2999 RMK A01 T00951032  RH  041%=      5-min Rain = 0
KSLS 240710Z 21009KT 10/M03 A2999 RMK A01 T00951033  RH  041%=      5-min Rain = 0
KSLS 240715Z 22010KT 10/M03 A2999 RMK A01 T01011034  RH  039%=      5-min Rain = 0
KSLS 240720Z 22010KT 10/M03 A2999 RMK A01 T01001033  RH  039%=      5-min Rain = 0
KSLS 240725Z 22010KT 10/M03 A2999 RMK A01 T00971033  RH  040%=      5-min Rain = 0
KSLS 240730Z 22011KT 10/M03 A2999 RMK A01 T00991033  RH  040%=      5-min Rain = 0
KSLS 240735Z 21011KT 10/M03 A2999 RMK A01 T01001032  RH  040%=      5-min Rain = 0
KSLS 240740Z 21011KT 10/M03 A2999 RMK A01 T01001031  RH  040%=      5-min Rain = 0
KSLS 240745Z 21011KT 10/M03 A30 RMK A01 T01011030  RH  040%=      5-min Rain = 0
KSLS 240750Z 22010KT 10/M03 A30 RMK A01 T01001030  RH  041%=      5-min Rain = 0
KSLS 240755Z 21010KT 10/M03 A30 RMK A01 T01021029  RH  040%=      5-min Rain = 0
KSLS 240800Z 21011KT 10/M03 A2999 RMK A01 T00991028  RH  041%=      5-min Rain = 0
KSLS 240805Z 22011KT 10/M03 A2999 RMK A01 T01041029  RH  040%=      5-min Rain = 0
KSLS 240810Z 21011KT 11/M03 A2999 RMK A01 T01071029  RH  039%=      5-min Rain = 0
KSLS 240815Z 21011KT 10/M03 A2999 RMK A01 T01021027  RH  041%=      5-min Rain = 0
KSLS 240820Z 21011KT 10/M03 A2999 RMK A01 T01021028  RH  040%=      5-min Rain = 0
KSLS 240825Z 21011KT 10/M03 A2999 RMK A01 T00961027  RH  042%=      5-min Rain = 0
KSLS 240830Z 22011KT 09/M03 A2999 RMK A01 T00931027  RH  043%=      5-min Rain = 0
KSLS 240835Z 22009KT 09/M03 A2999 RMK A01 T00941026  RH  043%=      5-min Rain = 0
KSLS 240840Z 22009KT 09/M03 A2999 RMK A01 T00901026  RH  045%=      5-min Rain = 0
KSLS 240845Z 23009KT 09/M03 A2999 RMK A01 T00871025  RH  045%=      5-min Rain = 0
KSLS 240850Z 23009KT 09/M03 A2999 RMK A01 T00871026  RH  045%=      5-min Rain = 0
KSLS 240855Z 22009KT 08/M03 A2999 RMK A01 T00841025  RH  047%=      5-min Rain = 0
KSLS 240900Z 22009KT 08/M02 A2999 RMK A01 T00781023  RH  049%=      5-min Rain = 0
KSLS 240905Z 23007KT 08/M02 A2999 RMK A01 T00771024  RH  049%=      5-min Rain = 0
KSLS 240910Z 30004KT 08/M03 A2999 RMK A01 T00761027  RH  049%=      5-min Rain = 0
KSLS 240915Z 28005KT 07/M03 A2999 RMK A01 T00691028  RH  051%=      5-min Rain = 0
KSLS 240920Z 30007KT 07/M03 A2999 RMK A01 T00651028  RH  052%=      5-min Rain = 0
KSLS 240925Z 30004KT 06/M03 A2999 RMK A01 T00621029  RH  052%=      5-min Rain = 0
KSLS 240930Z 27004KT 06/M03 A30 RMK A01 T00621029  RH  053%=      5-min Rain = 0
KSLS 240935Z 26003KT 06/M03 A30 RMK A01 T00591029  RH  054%=      5-min Rain = 0
KSLS 240940Z 26004KT 06/M03 A30 RMK A01 T00571028  RH  055%=      5-min Rain = 0
KSLS 240945Z 24004KT 06/M03 A30 RMK A01 T00601028  RH  054%=      5-min Rain = 0
KSLS 240950Z 19006KT 05/M03 A30 RMK A01 T00481027  RH  059%=      5-min Rain = 0
KSLS 240955Z 18007KT 04/M03 A30 RMK A01 T00441025  RH  061%=      5-min Rain = 0
KSLS 241000Z 19007KT 05/M03 A30 RMK A01 T00481026  RH  059%=      5-min Rain = 0
KSLS 241005Z 20007KT 05/M03 A30 RMK A01 T00491027  RH  058%=      5-min Rain = 0
KSLS 241010Z 20008KT 05/M02 A30 RMK A01 T00461024  RH  061%=      5-min Rain = 0
KSLS 241015Z 21007KT 04/M03 A30 RMK A01 T00441025  RH  062%=      5-min Rain = 0
KSLS 241020Z 22007KT 05/M03 A30 RMK A01 T00471025  RH  060%=      5-min Rain = 0
KSLS 241025Z 21007KT 05/M03 A30 RMK A01 T00481026  RH  059%=      5-min Rain = 0
KSLS 241030Z 21006KT 05/M03 A30 RMK A01 T00501029  RH  057%=      5-min Rain = 0
KSLS 241035Z 21008KT 05/M03 A3001 RMK A01 T00511030  RH  056%=      5-min Rain = 0
KSLS 241040Z 20009KT 04/M03 A3001 RMK A01 T00421028  RH  061%=      5-min Rain = 0
KSLS 241045Z 20008KT 05/M02 A3001 RMK A01 T00451024  RH  062%=      5-min Rain = 0
KSLS 241050Z 20007KT 05/M02 A3001 RMK A01 T00481024  RH  060%=      5-min Rain = 0
KSLS 241055Z 21007KT 05/M03 A3001 RMK A01 T00461025  RH  061%=      5-min Rain = 0
KSLS 241100Z 21008KT 05/M03 A3001 RMK A01 T00471025  RH  060%=      5-min Rain = 0
KSLS 241105Z 22008KT 05/M03 A3001 RMK A01 T00491025  RH  060%=      5-min Rain = 0
KSLS 241110Z 22007KT 05/M02 A3001 RMK A01 T00461024  RH  061%=      5-min Rain = 0
KSLS 241115Z 22007KT 05/M02 A3002 RMK A01 T00461024  RH  061%=      5-min Rain = 0
KSLS 241120Z 23009KT 05/M02 A3002 RMK A01 T00451024  RH  062%=      5-min Rain = 0
KSLS 241125Z 25009KT 05/M03 A3002 RMK A01 T00451025  RH  061%=      5-min Rain = 0
KSLS 241130Z 25009KT 05/M03 A3002 RMK A01 T00481026  RH  059%=      5-min Rain = 0
KSLS 241135Z 25009KT 05/M03 A3002 RMK A01 T00481026  RH  060%=      5-min Rain = 0
KSLS 241140Z 25008KT 05/M03 A3002 RMK A01 T00471026  RH  060%=      5-min Rain = 0
KSLS 241145Z 25008KT 05/M03 A3002 RMK A01 T00471028  RH  059%=      5-min Rain = 0
KSLS 241150Z 25007KT 05/M03 A3002 RMK A01 T00461028  RH  059%=      5-min Rain = 0
KSLS 241155Z 25007KT 04/M03 A3002 RMK A01 T00441029  RH  060%=      5-min Rain = 0
KSLS 241200Z 25007KT 04/M03 A3002 RMK A01 T00431028  RH  060%=      5-min Rain = 0
KSLS 241205Z 25008KT 04/M03 A3002 RMK A01 T00391027  RH  062%=      5-min Rain = 0
KSLS 241210Z 24009KT 04/M03 A3003 RMK A01 T00361026  RH  064%=      5-min Rain = 0
KSLS 241215Z 26008KT 04/M03 A3003 RMK A01 T00381027  RH  063%=      5-min Rain = 0
KSLS 241220Z 26008KT 04/M03 A3003 RMK A01 T00411028  RH  062%=      5-min Rain = 0
KSLS 241225Z 27006KT 04/M03 A3003 RMK A01 T00381028  RH  063%=      5-min Rain = 0
KSLS 241230Z 26007KT 04/M03 A3003 RMK A01 T00361028  RH  064%=      5-min Rain = 0
KSLS 241235Z 26007KT 03/M03 A3004 RMK A01 T00321027  RH  066%=      5-min Rain = 0
KSLS 241240Z 26007KT 04/M03 A3004 RMK A01 T00351027  RH  065%=      5-min Rain = 0
KSLS 241245Z 26007KT 03/M03 A3004 RMK A01 T00341027  RH  065%=      5-min Rain = 0
KSLS 241250Z 26008KT 03/M03 A3005 RMK A01 T00331027  RH  065%=      5-min Rain = 0
KSLS 241255Z 27007KT 03/M03 A3005 RMK A01 T00341026  RH  066%=      5-min Rain = 0
KSLS 241300Z 28009KT 04/M03 A3005 RMK A01 T00361026  RH  065%=      5-min Rain = 0
KSLS 241305Z 29009KT 04/M03 A3005 RMK A01 T00381026  RH  064%=      5-min Rain = 0
KSLS 241310Z 29008KT 04/M02 A3005 RMK A01 T00391024  RH  064%=      5-min Rain = 0
KSLS 241315Z 27007KT 04/M02 A3006 RMK A01 T00391021  RH  066%=      5-min Rain = 0
KSLS 241320Z 28009KT 04/M02 A3006 RMK A01 T00411018  RH  066%=      5-min Rain = 0
KSLS 241325Z 26008KT 05/M02 A3006 RMK A01 T00471015  RH  064%=      5-min Rain = 0
KSLS 241330Z 27008KT 05/M01 A3006 RMK A01 T00531013  RH  063%=      5-min Rain = 0
KSLS 241335Z 28008KT 05/M01 A3006 RMK A01 T00541010  RH  064%=      5-min Rain = 0
KSLS 241340Z 28008KT 06/M01 A3006 RMK A01 T00581006  RH  065%=      5-min Rain = 0
KSLS 241345Z 29007KT 06/M00 A3007 RMK A01 T00591004  RH  065%=      5-min Rain = 0
KSLS 241350Z 29007KT 06/00 A3007 RMK A01 T00630004  RH  066%=      5-min Rain = 0
KSLS 241355Z 30007KT 07/01 A3007 RMK A01 T00690010  RH  067%=      5-min Rain = 0
KSLS 241400Z 31007KT 07/01 A3007 RMK A01 T00740014  RH  067%=      5-min Rain = 0
KSLS 241405Z 32006KT 08/02 A3007 RMK A01 T00780019  RH  067%=      5-min Rain = 0
KSLS 241410Z 33007KT 08/02 A3007 RMK A01 T00800021  RH  067%=      5-min Rain = 0
KSLS 241415Z 33007KT 08/02 A3007 RMK A01 T00830023  RH  067%=      5-min Rain = 0
KSLS 241420Z 34008KT 09/03 A3008 RMK A01 T00850025  RH  067%=      5-min Rain = 0
KSLS 241425Z 34008KT 09/03 A3008 RMK A01 T00860026  RH  067%=      5-min Rain = 0
KSLS 241430Z 34008KT 09/03 A3008 RMK A01 T00890028  RH  066%=      5-min Rain = 0
KSLS 241435Z 33007KT 09/03 A3008 RMK A01 T00920030  RH  066%=      5-min Rain = 0
KSLS 241440Z 34007KT 09/03 A3008 RMK A01 T00920030  RH  066%=      5-min Rain = 0
KSLS 241445Z 34007KT 09/03 A3009 RMK A01 T00920031  RH  067%=      5-min Rain = 0
KSLS 241450Z 34007KT 10/03 A3009 RMK A01 T00950033  RH  066%=      5-min Rain = 0
KSLS 241455Z 34007KT 10/03 A3009 RMK A01 T00960033  RH  066%=      5-min Rain = 0
KSLS 241500Z 33007KT 10/04 A3009 RMK A01 T00990036  RH  066%=      5-min Rain = 0
KSLS 241505Z 33007KT 10/04 A3009 RMK A01 T01010035  RH  065%=      5-min Rain = 0
KSLS 241510Z 33006KT 10/04 A3009 RMK A01 T01010037  RH  065%=      5-min Rain = 0
KSLS 241515Z 34007KT 10/04 A3009 RMK A01 T01020038  RH  065%=      5-min Rain = 0
KSLS 241520Z 01008KT 10/04 A3009 RMK A01 T01030035  RH  063%=      5-min Rain = 0
KSLS 241525Z 35007KT 10/04 A3009 RMK A01 T01040037  RH  064%=      5-min Rain = 0
KSLS 241530Z 36007KT 11/04 A3009 RMK A01 T01060038  RH  064%=      5-min Rain = 0
KSLS 241535Z 01007KT 11/04 A3009 RMK A01 T01090041  RH  064%=      5-min Rain = 0
KSLS 241540Z 01007KT 11/04 A3009 RMK A01 T01140043  RH  062%=      5-min Rain = 0
KSLS 241545Z 01008KT 12/04 A3009 RMK A01 T01160043  RH  062%=      5-min Rain = 0
KSLS 241550Z 02007G12KT 12/04 A3009 RMK A01 T01190044  RH  061%=      5-min Rain = 0
KSLS 241555Z 00008KT 12/05 A3009 RMK A01 T01220045  RH  060%=      5-min Rain = 0
KSLS 241600Z 01007KT 12/05 A301 RMK A01 T01240045  RH  059%=      5-min Rain = 0
KSLS 241605Z 02007KT 12/05 A301 RMK A01 T01240045  RH  059%=      5-min Rain = 0
KSLS 241610Z 01007KT 12/04 A301 RMK A01 T01240044  RH  059%=      5-min Rain = 0
KSLS 241615Z 00006KT 13/05 A301 RMK A01 T01260047  RH  059%=      5-min Rain = 0
KSLS 241620Z 03006KT 13/05 A301 RMK A01 T01270045  RH  058%=      5-min Rain = 0
KSLS 241625Z 01006KT 13/05 A301 RMK A01 T01310047  RH  058%=      5-min Rain = 0
KSLS 241630Z 02006KT 13/05 A301 RMK A01 T01340048  RH  057%=      5-min Rain = 0
KSLS 241635Z 02007KT 14/05 A301 RMK A01 T01350047  RH  056%=      5-min Rain = 0
KSLS 241640Z 04007KT 14/05 A301 RMK A01 T01360047  RH  056%=      5-min Rain = 0
KSLS 241645Z 04006KT 14/05 A301 RMK A01 T01410051  RH  055%=      5-min Rain = 0
KSLS 241650Z 03007KT 14/05 A3009 RMK A01 T01440050  RH  054%=      5-min Rain = 0
KSLS 241655Z 05006KT 15/05 A3009 RMK A01 T01470051  RH  053%=      5-min Rain = 0
KSLS 241700Z 04007KT 15/05 A3009 RMK A01 T01520048  RH  051%=      5-min Rain = 0
KSLS 241705Z 02006KT 15/05 A3009 RMK A01 T01510045  RH  050%=      5-min Rain = 0
KSLS 241710Z 05005KT 16/05 A3009 RMK A01 T01580054  RH  051%=      5-min Rain = 0
KSLS 241715Z 02005KT 16/05 A301 RMK A01 T01600050  RH  049%=      5-min Rain = 0
KSLS 241720Z 05004KT 16/05 A3009 RMK A01 T01620052  RH  049%=      5-min Rain = 0
KSLS 241725Z 03005KT 17/05 A3009 RMK A01 T01670050  RH  047%=      5-min Rain = 0
KSLS 241730Z 05004KT 17/05 A3009 RMK A01 T01660046  RH  046%=      5-min Rain = 0
KSLS 241735Z 06004KT 17/04 A301 RMK A01 T01660044  RH  045%=      5-min Rain = 0
KSLS 241740Z 06004KT 17/05 A3009 RMK A01 T01720048  RH  045%=      5-min Rain = 0
KSLS 241745Z 07005KT 18/05 A3009 RMK A01 T01750047  RH  043%=      5-min Rain = 0
KSLS 241750Z 06001KT 18/04 A3009 RMK A01 T01770043  RH  042%=      5-min Rain = 0
KSLS 241755Z 10002KT 18/05 A3009 RMK A01 T01820050  RH  042%=      5-min Rain = 0
KSLS 241800Z 12001KT 18/04 A3009 RMK A01 T01840043  RH  040%=      5-min Rain = 0
KSLS 241805Z 02001KT 19/05 A3009 RMK A01 T01890046  RH  039%=      5-min Rain = 0
KSLS 241810Z 00002KT 19/05 A3009 RMK A01 T01890047  RH  040%=      5-min Rain = 0
KSLS 241815Z 10002KT 19/05 A3009 RMK A01 T01880046  RH  040%=      5-min Rain = 0
KSLS 241820Z 05001KT 19/04 A3009 RMK A01 T01880043  RH  039%=      5-min Rain = 0
KSLS 241825Z 19001KT 19/03 A3009 RMK A01 T01910033  RH  035%=      5-min Rain = 0
KSLS 241830Z 24001KT 20/05 A3009 RMK A01 T01990045  RH  037%=      5-min Rain = 0
KSLS 241835Z 10001KT 20/05 A3008 RMK A01 T02040045  RH  036%=      5-min Rain = 0
KSLS 241840Z 09002KT 20/04 A3008 RMK A01 T01990039  RH  035%=      5-min Rain = 0
KSLS 241845Z 18003KT 20/04 A3008 RMK A01 T02030041  RH  035%=      5-min Rain = 0
KSLS 241850Z 28003KT 20/04 A3008 RMK A01 T01960039  RH  036%=      5-min Rain = 0
KSLS 241855Z 26004KT 20/03 A3008 RMK A01 T01950034  RH  035%=      5-min Rain = 0
KSLS 241900Z 25003KT 20/03 A3008 RMK A01 T01960030  RH  033%=      5-min Rain = 0
KSLS 241905Z 29002KT 20/03 A3007 RMK A01 T01980031  RH  033%=      5-min Rain = 0
KSLS 241910Z 22002KT 20/03 A3007 RMK A01 T02020030  RH  032%=      5-min Rain = 0
KSLS 241915Z 24004KT 20/03 A3007 RMK A01 T02030031  RH  032%=      5-min Rain = 0
KSLS 241920Z 22003KT 20/03 A3007 RMK A01 T02020026  RH  032%=      5-min Rain = 0
KSLS 241925Z 26003KT 21/03 A3007 RMK A01 T02060029  RH  031%=      5-min Rain = 0
KSLS 241930Z 23004KT 20/02 A3007 RMK A01 T02020024  RH  031%=      5-min Rain = 0
KSLS 241935Z 27003G8KT 21/03 A3007 RMK A01 T02110032  RH  031%=      5-min Rain = 0
KSLS 241940Z 28004KT 21/03 A3006 RMK A01 T02100030  RH  031%=      5-min Rain = 0
KSLS 241945Z 21002KT 21/02 A3006 RMK A01 T02090024  RH  030%=      5-min Rain = 0
KSLS 241950Z 19003KT 21/03 A3006 RMK A01 T02100028  RH  030%=      5-min Rain = 0
KSLS 241955Z 25004KT 21/03 A3006 RMK A01 T02130033  RH  031%=      5-min Rain = 0
KSLS 242000Z 27002KT 21/02 A3005 RMK A01 T02080023  RH  030%=      5-min Rain = 0
KSLS 242005Z 25003KT 21/02 A3005 RMK A01 T02100023  RH  029%=      5-min Rain = 0
KSLS 242010Z 24003KT 21/03 A3005 RMK A01 T02120031  RH  031%=      5-min Rain = 0
KSLS 242015Z 21005KT 21/03 A3005 RMK A01 T02130031  RH  031%=      5-min Rain = 0
KSLS 242020Z 21003KT 22/03 A3005 RMK A01 T02150031  RH  030%=      5-min Rain = 0
KSLS 242025Z 27004KT 22/03 A3005 RMK A01 T02160030  RH  030%=      5-min Rain = 0
KSLS 242030Z 28004KT 22/03 A3005 RMK A01 T02160034  RH  031%=      5-min Rain = 0
KSLS 242035Z 25002KT 22/03 A3005 RMK A01 T02170027  RH  029%=      5-min Rain = 0
KSLS 242040Z 22002KT 22/03 A3004 RMK A01 T02220026  RH  028%=      5-min Rain = 0
KSLS 242045Z 24005KT 22/03 A3004 RMK A01 T02210028  RH  028%=      5-min Rain = 0
KSLS 242050Z 26006KT 22/03 A3004 RMK A01 T02190028  RH  029%=      5-min Rain = 0
KSLS 242055Z 31004KT 22/01 A3004 RMK A01 T02180014  RH  026%=      5-min Rain = 0
KSLS 242100Z 31004KT 22/02 A3004 RMK A01 T02210016  RH  026%=      5-min Rain = 0
KSLS 242105Z 04001KT 22/01 A3004 RMK A01 T02210009  RH  025%=      5-min Rain = 0
KSLS 242110Z 35004KT 22/02 A3004 RMK A01 T02230017  RH  026%=      5-min Rain = 0
KSLS 242115Z 30005KT 22/03 A3004 RMK A01 T02200030  RH  029%=      5-min Rain = 0
KSLS 242120Z 03004KT 21/02 A3004 RMK A01 T02140016  RH  027%=      5-min Rain = 0
KSLS 242125Z 32004KT 21/02 A3004 RMK A01 T02110019  RH  028%=      5-min Rain = 0
KSLS 242130Z 31005KT 22/02 A3004 RMK A01 T02160021  RH  028%=      5-min Rain = 0
KSLS 242135Z 34006KT 22/00 A3004 RMK A01 T02200002  RH  024%=      5-min Rain = 0
KSLS 242140Z 33005KT 22/00 A3004 RMK A01 T02220002  RH  023%=      5-min Rain = 0
KSLS 242145Z 31005KT 23/01 A3004 RMK A01 T02250009  RH  024%=      5-min Rain = 0
KSLS 242150Z 32004KT 23/00 A3004 RMK A01 T02250003  RH  023%=      5-min Rain = 0
KSLS 242155Z 33005KT 22/M00 A3004 RMK A01 T02221001  RH  023%=      5-min Rain = 0
KSLS 242200Z 35004G9KT 22/M01 A3004 RMK A01 T02221009  RH  022%=      5-min Rain = 0
KSLS 242205Z 34003KT 23/M00 A3004 RMK A01 T02251004  RH  022%=      5-min Rain = 0
KSLS 242210Z 35005KT 22/M01 A3004 RMK A01 T02231009  RH  021%=      5-min Rain = 0
KSLS 242215Z 30004KT 23/00 A3004 RMK A01 T02250002  RH  023%=      5-min Rain = 0
KSLS 242220Z 29004KT 22/00 A3004 RMK A01 T02240004  RH  024%=      5-min Rain = 0
KSLS 242225Z 22001KT 23/M01 A3004 RMK A01 T02281006  RH  021%=      5-min Rain = 0
KSLS 242230Z 21002KT 23/00 A3004 RMK A01 T02290003  RH  023%=      5-min Rain = 0
KSLS 242235Z 33003KT 23/01 A3004 RMK A01 T02280008  RH  024%=      5-min Rain = 0
KSLS 242240Z 33005KT 23/00 A3004 RMK A01 T022800-0  RH  022%=      5-min Rain = 0
KSLS 242245Z 31005KT 23/00 A3004 RMK A01 T02280000  RH  022%=      5-min Rain = 0
KSLS 242250Z 26002KT 23/00 A3003 RMK A01 T02290003  RH  023%=      5-min Rain = 0
KSLS 242255Z 26002KT 23/M00 A3003 RMK A01 T02321004  RH  021%=      5-min Rain = 0
KSLS 242300Z 28003G9KT 24/M00 A3003 RMK A01 T02351003  RH  021%=      5-min Rain = 0
KSLS 242305Z 29005KT 23/M00 A3003 RMK A01 T02261002  RH  022%=      5-min Rain = 0
KSLS 242310Z 29007KT 23/M01 A3003 RMK A01 T02271013  RH  020%=      5-min Rain = 0
KSLS 242315Z 28006KT 23/M02 A3003 RMK A01 T02271020  RH  019%=      5-min Rain = 0
KSLS 242320Z 28005KT 23/M02 A3003 RMK A01 T02281024  RH  019%=      5-min Rain = 0
KSLS 242325Z 30006KT 23/M02 A3003 RMK A01 T02281021  RH  019%=      5-min Rain = 0
KSLS 242330Z 30008KT 23/M02 A3004 RMK A01 T02261019  RH  020%=      5-min Rain = 0
KSLS 242335Z 28007G12KT 23/M02 A3004 RMK A01 T02261015  RH  020%=      5-min Rain = 0
KSLS 242340Z 28008KT 22/M01 A3003 RMK A01 T02241012  RH  021%=      5-min Rain = 0
KSLS 242345Z 28004KT 23/00 A3003 RMK A01 T02250000  RH  023%=      5-min Rain = 0
KSLS 242350Z 29004KT 23/M00 A3003 RMK A01 T02261004  RH  022%=      5-min Rain = 0
KSLS 242355Z 31003KT 23/M00 A3003 RMK A01 T02251004  RH  022%=      5-min Rain = 0
KSLS 250000Z 28003G8KT 23/M01 A3003 RMK A01 T02251007  RH  022%=      5-min Rain = 0
KSLS 250005Z 24005KT 22/M00 A3003 RMK A01 T02231001  RH  023%=      5-min Rain = 0
KSLS 250010Z 25005KT 22/M00 A3003 RMK A01 T02201003  RH  023%=      5-min Rain = 0
KSLS 250015Z 26006KT 22/M01 A3003 RMK A01 T02191006  RH  023%=      5-min Rain = 0
KSLS 250020Z 26003KT 22/00 A3003 RMK A01 T02150002  RH  024%=      5-min Rain = 0
KSLS 250025Z 00003KT 22/M00 A3003 RMK A01 T02151004  RH  023%=      5-min Rain = 0
KSLS 250030Z 00002KT 22/M01 A3003 RMK A01 T02151005  RH  023%=      5-min Rain = 0
KSLS 250035Z 03002KT 21/M01 A3003 RMK A01 T02141005  RH  023%=      5-min Rain = 0
KSLS 250040Z 03002KT 21/M00 A3003 RMK A01 T02121004  RH  024%=      5-min Rain = 0
KSLS 250045Z 02002KT 21/M01 A3003 RMK A01 T02091006  RH  024%=      5-min Rain = 0
KSLS 250050Z 03002KT 21/M01 A3003 RMK A01 T02091007  RH  024%=      5-min Rain = 0
KSLS 250055Z 04003KT 21/M01 A3003 RMK A01 T02061007  RH  024%=      5-min Rain = 0
KSLS 250100Z 05003KT 20/M00 A3003 RMK A01 T02021004  RH  025%=      5-min Rain = 0
KSLS 250105Z 06003KT 20/M00 A3004 RMK A01 T01981001  RH  027%=      5-min Rain = 0
KSLS 250110Z 06003KT 19/00 A3004 RMK A01 T01910003  RH  028%=      5-min Rain = 0
KSLS 250115Z 08003KT 18/03 A3004 RMK A01 T01830025  RH  035%=      5-min Rain = 0
KSLS 250120Z 08004KT 18/01 A3004 RMK A01 T01810014  RH  033%=      5-min Rain = 0
KSLS 250125Z 08004KT 18/02 A3004 RMK A01 T01800018  RH  034%=      5-min Rain = 0
KSLS 250130Z 09004KT 18/01 A3004 RMK A01 T01780012  RH  033%=      5-min Rain = 0
KSLS 250135Z 09004KT 18/01 A3004 RMK A01 T01770006  RH  032%=      5-min Rain = 0
KSLS 250140Z 10004KT 17/01 A3004 RMK A01 T01730006  RH  033%=      5-min Rain = 0
KSLS 250145Z 09004KT 17/01 A3004 RMK A01 T01730007  RH  033%=      5-min Rain = 0
KSLS 250150Z 09004KT 18/01 A3004 RMK A01 T01770006  RH  032%=      5-min Rain = 0
KSLS 250155Z 09004KT 17/01 A3004 RMK A01 T01740007  RH  033%=      5-min Rain = 0
KSLS 250200Z 12004KT 17/01 A3004 RMK A01 T01670007  RH  034%=      5-min Rain = 0
KSLS 250205Z 13005KT 16/01 A3005 RMK A01 T01600012  RH  037%=      5-min Rain = 0
KSLS 250210Z 13005KT 16/00 A3005 RMK A01 T01610002  RH  034%=      5-min Rain = 0
KSLS 250215Z 12005KT 15/00 A3005 RMK A01 T01540003  RH  036%=      5-min Rain = 0
KSLS 250220Z 12006KT 15/00 A3005 RMK A01 T01470002  RH  038%=      5-min Rain = 0
KSLS 250225Z 12006KT 15/00 A3005 RMK A01 T01470002  RH  037%=      5-min Rain = 0
KSLS 250230Z 11006KT 15/00 A3006 RMK A01 T01470004  RH  038%=      5-min Rain = 0
KSLS 250235Z 11007KT 15/00 A3006 RMK A01 T01500003  RH  037%=      5-min Rain = 0
KSLS 250240Z 11006KT 15/01 A3006 RMK A01 T01480007  RH  039%=      5-min Rain = 0
KSLS 250245Z 11006KT 15/01 A3007 RMK A01 T01450010  RH  040%=      5-min Rain = 0
KSLS 250250Z 12006KT 14/01 A3007 RMK A01 T01400013  RH  042%=      5-min Rain = 0
KSLS 250255Z 12007KT 14/01 A3007 RMK A01 T01360006  RH  041%=      5-min Rain = 0
KSLS 250300Z 12008KT 13/02 A3007 RMK A01 T01310016  RH  046%=      5-min Rain = 0
KSLS 250305Z 12008KT 13/01 A3007 RMK A01 T01280014  RH  046%=      5-min Rain = 0
KSLS 250310Z 12010KT 13/01 A3008 RMK A01 T01270013  RH  046%=      5-min Rain = 0
KSLS 250315Z 12009KT 14/02 A3008 RMK A01 T01420021  RH  045%=      5-min Rain = 0
KSLS 250320Z 12009KT 14/02 A3008 RMK A01 T01350024  RH  048%=      5-min Rain = 0
KSLS 250325Z 12010KT 13/03 A3008 RMK A01 T01310025  RH  049%=      5-min Rain = 0
KSLS 250330Z 12009KT 13/03 A3008 RMK A01 T01300029  RH  051%=      5-min Rain = 0
KSLS 250335Z 12009KT 13/04 A3009 RMK A01 T01310035  RH  053%=      5-min Rain = 0
KSLS 250340Z 12010KT 13/04 A3009 RMK A01 T01320039  RH  054%=      5-min Rain = 0
KSLS 250345Z 12009KT 13/04 A3009 RMK A01 T01340041  RH  054%=      5-min Rain = 0
KSLS 250350Z 12010KT 13/04 A3009 RMK A01 T01340041  RH  054%=      5-min Rain = 0
KSLS 250355Z 12008KT 14/04 A3009 RMK A01 T01350041  RH  054%=      5-min Rain = 0
KSLS 250400Z 13008KT 13/04 A3009 RMK A01 T01300040  RH  055%=      5-min Rain = 0
KSLS 250405Z 13008KT 13/04 A301 RMK A01 T01250039  RH  057%=      5-min Rain = 0
KSLS 250410Z 11006KT 12/04 A301 RMK A01 T01230040  RH  057%=      5-min Rain = 0
KSLS 250415Z 11006KT 13/04 A301 RMK A01 T01260041  RH  057%=      5-min Rain = 0
KSLS 250420Z 11007KT 13/04 A301 RMK A01 T01280044  RH  057%=      5-min Rain = 0
KSLS 250425Z 12008KT 13/04 A301 RMK A01 T01290044  RH  057%=      5-min Rain = 0
KSLS 250430Z 13009KT 12/04 A301 RMK A01 T01190042  RH  060%=      5-min Rain = 0
KSLS 250435Z 12008KT 11/04 A301 RMK A01 T01140043  RH  063%=      5-min Rain = 0
KSLS 250440Z 11006KT 12/04 A3011 RMK A01 T01200044  RH  060%=      5-min Rain = 0
KSLS 250445Z 11006KT 12/05 A3011 RMK A01 T01190045  RH  061%=      5-min Rain = 0
KSLS 250450Z 12009KT 12/04 A301 RMK A01 T01190042  RH  060%=      5-min Rain = 0
KSLS 250455Z 12009KT 12/04 A3011 RMK A01 T01160043  RH  062%=      5-min Rain = 0

Page generated in 0.0206 seconds.